Time;durP1;ratioP1;P1;durP2;ratioP2;P2;SDS_P1;SDS_P2;PMS_P1;PMS_P2;Temp;Humidity;BMP_temperature;BMP_pressure;BME280_temperature;BME280_humidity;BME280_pressure;Samples;Min_cycle;Max_cycle;Signal;HPM_P1;HPM_P2
2021/10/01 00:01:00;;;;;;;15.65;11.77;;;12.80;65.40;;;;;;5035989;28;20465;-86
2021/10/01 00:03:26;;;;;;;17.38;12.38;;;12.80;65.40;;;;;;5041896;28;20088;-85
2021/10/01 00:05:52;;;;;;;16.92;12.07;;;12.80;65.50;;;;;;5029735;28;20625;-86
2021/10/01 00:08:18;;;;;;;15.70;11.93;;;12.80;65.60;;;;;;5036979;28;20040;-86
2021/10/01 00:10:44;;;;;;;15.80;11.30;;;12.80;65.70;;;;;;5038601;28;20026;-86
2021/10/01 00:13:10;;;;;;;13.30;10.80;;;12.70;65.70;;;;;;5041484;28;20029;-86
2021/10/01 00:15:36;;;;;;;16.83;11.70;;;12.70;65.80;;;;;;5037523;28;20060;-86
2021/10/01 00:18:03;;;;;;;17.27;11.38;;;12.70;65.80;;;;;;5038186;28;20033;-86
2021/10/01 00:20:29;;;;;;;16.88;11.98;;;12.70;66.00;;;;;;5036627;28;20075;-86
2021/10/01 00:22:55;;;;;;;15.27;11.60;;;12.70;66.00;;;;;;5038277;28;20028;-86
2021/10/01 00:25:21;;;;;;;15.32;11.80;;;12.70;65.90;;;;;;5037392;28;20043;-87
2021/10/01 00:27:47;;;;;;;16.67;11.57;;;12.70;65.90;;;;;;5024001;28;20059;-86
2021/10/01 00:30:13;;;;;;;16.88;11.40;;;12.70;65.80;;;;;;5035937;28;20060;-85
2021/10/01 00:32:40;;;;;;;15.27;11.00;;;12.70;65.70;;;;;;5059365;28;20492;-85
2021/10/01 00:35:06;;;;;;;16.63;12.05;;;12.70;65.60;;;;;;5032779;28;20044;-85
2021/10/01 00:37:32;;;;;;;18.30;11.73;;;12.70;65.70;;;;;;5044445;28;20044;-86
2021/10/01 00:39:58;;;;;;;19.95;12.38;;;12.70;65.50;;;;;;5038068;28;20412;-86
2021/10/01 00:42:24;;;;;;;18.13;11.38;;;12.70;65.40;;;;;;5036281;28;20416;-86
2021/10/01 00:44:54;;;;;;;16.40;11.90;;;12.80;65.40;;;;;;5037813;28;20033;-85
2021/10/01 00:47:19;;;;;;;18.05;11.90;;;12.80;65.50;;;;;;5034920;28;20050;-85
2021/10/01 00:49:46;;;;;;;15.60;11.00;;;12.70;65.50;;;;;;5025312;28;20128;-86
2021/10/01 00:52:14;;;;;;;16.40;12.00;;;12.70;65.60;;;;;;5036129;28;20688;-85
2021/10/01 00:54:40;;;;;;;15.23;12.02;;;12.70;65.70;;;;;;5035784;28;20029;-85
2021/10/01 00:57:06;;;;;;;16.42;12.18;;;12.70;65.70;;;;;;5037181;28;20419;-85
2021/10/01 00:59:32;;;;;;;19.90;12.45;;;12.70;65.70;;;;;;5036340;28;20033;-84
2021/10/01 01:01:58;;;;;;;17.80;13.00;;;12.70;65.70;;;;;;5036367;28;20207;-85
2021/10/01 01:04:24;;;;;;;22.25;13.55;;;12.70;65.70;;;;;;5023269;28;20567;-86
2021/10/01 01:07:18;;;;;;;19.25;13.02;;;12.70;65.80;;;;;;5035073;28;20048;-85
2021/10/01 01:09:59;;;;;;;17.88;12.98;;;12.70;65.90;;;;;;5025198;28;20026;-86
2021/10/01 01:12:41;;;;;;;19.08;13.70;;;12.70;66.00;;;;;;5034964;28;20044;-86
2021/10/01 01:15:10;;;;;;;20.40;13.95;;;12.70;66.10;;;;;;5027645;28;20039;-85
2021/10/01 01:17:44;;;;;;;19.17;13.88;;;12.80;66.20;;;;;;5034957;28;20116;-85
2021/10/01 01:20:37;;;;;;;22.05;14.02;;;12.70;66.30;;;;;;5035419;28;20075;-85
2021/10/01 01:23:31;;;;;;;22.23;14.23;;;12.80;66.30;;;;;;5023948;28;20056;-85
2021/10/01 01:26:21;;;;;;;19.73;13.57;;;12.80;66.20;;;;;;5035395;28;20081;-84
2021/10/01 01:29:20;;;;;;;20.95;14.20;;;12.80;66.10;;;;;;5065673;28;20036;-84
2021/10/01 01:31:57;;;;;;;20.65;13.73;;;12.80;66.20;;;;;;5068719;28;20029;-84
2021/10/01 01:34:30;;;;;;;19.30;14.15;;;12.70;66.20;;;;;;5022872;28;20452;-86
2021/10/01 01:37:01;;;;;;;20.25;13.25;;;12.70;66.40;;;;;;5030019;28;20037;-85
2021/10/01 01:39:32;;;;;;;20.17;14.55;;;12.70;66.40;;;;;;5038415;28;20545;-86
2021/10/01 01:41:59;;;;;;;20.92;14.30;;;12.70;66.50;;;;;;5035084;28;20083;-83
2021/10/01 01:44:27;;;;;;;22.40;14.48;;;12.70;66.50;;;;;;5052983;28;20028;-86
2021/10/01 01:46:55;;;;;;;21.58;13.88;;;12.70;66.50;;;;;;5035189;28;20029;-86
2021/10/01 01:49:22;;;;;;;19.08;13.73;;;12.70;66.50;;;;;;5033508;28;20029;-84
2021/10/01 01:51:50;;;;;;;18.60;13.82;;;12.70;66.40;;;;;;5037927;28;20076;-84
2021/10/01 01:54:19;;;;;;;22.23;14.73;;;12.70;66.50;;;;;;5035079;28;20032;-86
2021/10/01 01:56:46;;;;;;;23.90;15.20;;;12.70;66.50;;;;;;5039813;28;20029;-85
2021/10/01 01:59:13;;;;;;;27.88;14.68;;;12.70;66.40;;;;;;5035059;28;20029;-86
2021/10/01 02:01:42;;;;;;;22.50;13.30;;;12.70;66.50;;;;;;5035697;28;20037;-84
2021/10/01 02:04:14;;;;;;;21.65;14.70;;;12.70;66.50;;;;;;5035624;28;20029;-87
2021/10/01 02:06:41;;;;;;;21.63;14.68;;;12.70;66.50;;;;;;5023056;28;20029;-87
2021/10/01 02:09:09;;;;;;;17.85;13.60;;;12.70;66.60;;;;;;5023783;28;20566;-86
2021/10/01 02:11:41;;;;;;;21.05;14.93;;;12.70;66.60;;;;;;5035408;28;20033;-85
2021/10/01 02:14:08;;;;;;;18.85;13.68;;;12.80;66.60;;;;;;5035602;28;20514;-86
2021/10/01 02:16:36;;;;;;;19.08;13.93;;;12.70;66.70;;;;;;5019217;28;20056;-85
2021/10/01 02:19:03;;;;;;;19.75;13.85;;;12.70;66.70;;;;;;5034622;28;20037;-85
2021/10/01 02:21:30;;;;;;;18.95;13.68;;;12.70;66.60;;;;;;5036141;28;20095;-85
2021/10/01 02:23:58;;;;;;;21.75;14.18;;;12.70;66.60;;;;;;5021818;28;20037;-83
2021/10/01 02:26:36;;;;;;;24.20;14.13;;;12.70;66.70;;;;;;5032228;28;20054;-84
2021/10/01 02:29:11;;;;;;;17.70;13.00;;;12.70;66.70;;;;;;5068720;28;20032;-84
2021/10/01 02:31:55;;;;;;;20.25;14.75;;;12.70;66.70;;;;;;5035234;28;20123;-83
2021/10/01 02:34:36;;;;;;;19.23;13.63;;;12.70;66.70;;;;;;5054121;28;20029;-85
2021/10/01 02:37:10;;;;;;;19.98;13.73;;;12.70;66.70;;;;;;5040140;28;20033;-84
2021/10/01 02:39:41;;;;;;;23.27;14.27;;;12.70;66.70;;;;;;5052002;28;20056;-85
2021/10/01 02:42:09;;;;;;;19.83;13.77;;;12.70;66.70;;;;;;5025119;28;20519;-86
2021/10/01 02:44:36;;;;;;;21.15;13.15;;;12.70;66.70;;;;;;5018698;28;20030;-85
2021/10/01 02:47:03;;;;;;;20.40;13.73;;;12.70;66.80;;;;;;5022324;28;20029;-85
2021/10/01 02:49:30;;;;;;;20.58;12.52;;;12.70;66.90;;;;;;5033653;28;20131;-85
2021/10/01 02:52:07;;;;;;;19.30;12.95;;;12.70;67.00;;;;;;5034603;28;20033;-85
2021/10/01 02:54:41;;;;;;;19.20;12.50;;;12.70;67.20;;;;;;5020585;28;20036;-84
2021/10/01 02:57:21;;;;;;;18.17;12.30;;;12.70;67.30;;;;;;5051311;28;20036;-84
2021/10/01 02:59:49;;;;;;;17.42;11.60;;;12.60;67.40;;;;;;5039259;28;20510;-84
2021/10/01 03:02:19;;;;;;;16.13;11.75;;;12.60;67.60;;;;;;5033797;28;20419;-86
2021/10/01 03:04:49;;;;;;;14.77;11.57;;;12.60;67.70;;;;;;5006904;28;20056;-85
2021/10/01 03:07:16;;;;;;;16.75;12.18;;;12.70;67.80;;;;;;5022378;28;20124;-85
2021/10/01 03:09:47;;;;;;;14.45;11.07;;;12.60;67.70;;;;;;5034250;28;20029;-85
2021/10/01 03:12:16;;;;;;;15.73;11.27;;;12.70;67.70;;;;;;5050456;28;20518;-85
2021/10/01 03:14:42;;;;;;;18.20;11.82;;;12.70;67.80;;;;;;5051787;28;20032;-85
2021/10/01 03:17:08;;;;;;;16.60;11.23;;;12.70;67.70;;;;;;5039205;28;20499;-84
2021/10/01 03:19:35;;;;;;;15.38;10.55;;;12.70;67.70;;;;;;5040673;28;20029;-84
2021/10/01 03:22:03;;;;;;;17.33;11.13;;;12.70;67.70;;;;;;5047653;28;20083;-84
2021/10/01 03:24:30;;;;;;;16.88;11.75;;;12.70;67.60;;;;;;5065528;28;20035;-85
2021/10/01 03:26:57;;;;;;;16.08;10.48;;;12.70;67.50;;;;;;5041206;28;20076;-85
2021/10/01 03:29:23;;;;;;;17.80;11.43;;;12.70;67.50;;;;;;5026645;28;20029;-85
2021/10/01 03:31:50;;;;;;;17.95;11.45;;;12.70;67.40;;;;;;5037956;28;20022;-86
2021/10/01 03:34:17;;;;;;;17.45;12.38;;;12.70;67.30;;;;;;5038876;28;20029;-85
2021/10/01 03:36:47;;;;;;;16.02;11.13;;;12.70;67.10;;;;;;5026861;28;20515;-84
2021/10/01 03:39:19;;;;;;;17.02;11.77;;;12.70;67.10;;;;;;5013408;28;20064;-84
2021/10/01 03:41:47;;;;;;;17.98;11.38;;;12.70;67.20;;;;;;5009351;28;20032;-84
2021/10/01 03:44:12;;;;;;;17.52;11.38;;;12.70;67.10;;;;;;5038404;28;20448;-84
2021/10/01 03:46:39;;;;;;;15.68;11.75;;;12.70;67.00;;;;;;5037037;28;20025;-84
2021/10/01 03:49:05;;;;;;;18.35;11.75;;;12.70;67.00;;;;;;5042207;28;20029;-85
2021/10/01 03:51:31;;;;;;;16.88;11.63;;;12.70;67.00;;;;;;5040664;28;20033;-86
2021/10/01 03:53:58;;;;;;;17.27;11.05;;;12.70;67.00;;;;;;5054415;28;20071;-87
2021/10/01 03:56:24;;;;;;;17.42;11.02;;;12.70;66.90;;;;;;5021323;28;20395;-88
2021/10/01 03:58:50;;;;;;;17.52;11.95;;;12.70;66.90;;;;;;5041499;28;20091;-87
2021/10/01 04:01:17;;;;;;;15.70;11.25;;;12.70;66.90;;;;;;5038720;28;20489;-89
2021/10/01 04:03:43;;;;;;;18.08;11.55;;;12.70;67.00;;;;;;5039298;28;20122;-88
2021/10/01 04:06:10;;;;;;;18.15;12.02;;;12.70;67.00;;;;;;5038606;28;20169;-88
2021/10/01 04:08:36;;;;;;;15.70;11.57;;;12.70;67.10;;;;;;5037495;28;20021;-88
2021/10/01 04:11:05;;;;;;;19.73;11.65;;;12.70;67.00;;;;;;5019884;28;20060;-86
2021/10/01 04:13:31;;;;;;;15.57;10.93;;;12.70;67.00;;;;;;5025974;28;20033;-88
2021/10/01 04:15:57;;;;;;;17.30;10.98;;;12.60;67.00;;;;;;5047348;28;20112;-87
2021/10/01 04:18:25;;;;;;;16.67;11.50;;;12.60;66.90;;;;;;5062404;28;20051;-83
2021/10/01 04:20:51;;;;;;;18.35;11.00;;;12.70;67.00;;;;;;5037614;28;20726;-85
2021/10/01 04:23:17;;;;;;;17.95;11.57;;;12.70;67.10;;;;;;5042881;28;20535;-85
2021/10/01 04:26:02;;;;;;;18.00;11.33;;;12.60;67.00;;;;;;5038494;28;20067;-87
2021/10/01 04:28:28;;;;;;;19.85;12.15;;;12.60;66.90;;;;;;5020331;28;20280;-87
2021/10/01 04:31:00;;;;;;;16.90;11.40;;;12.60;66.90;;;;;;5036494;28;20597;-87
2021/10/01 04:33:27;;;;;;;19.50;12.02;;;12.60;66.90;;;;;;5020177;28;20021;-86
2021/10/01 04:35:55;;;;;;;18.60;12.10;;;12.60;66.80;;;;;;5037270;28;20021;-86
2021/10/01 04:38:22;;;;;;;16.45;11.23;;;12.70;66.70;;;;;;5036403;28;20080;-85
2021/10/01 04:40:49;;;;;;;15.60;11.43;;;12.70;66.70;;;;;;5036825;28;20033;-85
2021/10/01 04:43:16;;;;;;;19.60;11.27;;;12.70;66.70;;;;;;5036831;28;20028;-85
2021/10/01 04:46:00;;;;;;;17.85;11.30;;;12.70;66.60;;;;;;5036459;28;20116;-83
2021/10/01 04:48:27;;;;;;;17.05;11.30;;;12.70;66.60;;;;;;5036301;28;20079;-85
2021/10/01 04:50:54;;;;;;;17.58;11.63;;;12.70;66.70;;;;;;5023255;28;20056;-84
2021/10/01 04:53:20;;;;;;;18.08;12.20;;;12.70;66.70;;;;;;5035344;28;20048;-83
2021/10/01 04:55:46;;;;;;;17.05;11.23;;;12.70;66.60;;;;;;5018586;28;20022;-84
2021/10/01 04:58:13;;;;;;;18.13;11.70;;;12.70;66.60;;;;;;5035234;28;20450;-84
2021/10/01 05:01:18;;;;;;;16.55;11.68;;;12.70;66.70;;;;;;4960889;28;20421;-82
2021/10/01 05:04:24;;;;;;;17.20;10.77;;;12.70;66.80;;;;;;4905601;29;20044;-84
2021/10/01 05:07:19;;;;;;;17.23;12.75;;;12.60;66.80;;;;;;4985938;28;20492;-85
2021/10/01 05:10:05;;;;;;;18.25;11.38;;;12.70;66.70;;;;;;5027707;28;20060;-85
2021/10/01 05:12:50;;;;;;;17.73;11.75;;;12.70;66.80;;;;;;5038273;28;20496;-84
2021/10/01 05:15:35;;;;;;;16.87;12.10;;;12.70;66.80;;;;;;5037469;28;20083;-84
2021/10/01 05:18:22;;;;;;;19.38;11.00;;;12.70;66.70;;;;;;5039369;28;20040;-84
2021/10/01 05:20:51;;;;;;;18.83;12.68;;;12.70;66.70;;;;;;5036228;28;20503;-84
2021/10/01 05:23:36;;;;;;;17.53;11.90;;;12.70;66.80;;;;;;5052539;28;20028;-84
2021/10/01 05:26:02;;;;;;;18.58;11.60;;;12.70;66.80;;;;;;5034403;28;20063;-84
2021/10/01 05:28:28;;;;;;;16.88;11.65;;;12.70;66.80;;;;;;5036331;28;20036;-85
2021/10/01 05:30:54;;;;;;;15.55;11.77;;;12.70;66.70;;;;;;5022810;28;20029;-84
2021/10/01 05:33:20;;;;;;;17.20;11.38;;;12.70;66.70;;;;;;5035793;28;20025;-84
2021/10/01 05:35:47;;;;;;;17.40;11.90;;;12.70;66.90;;;;;;5018047;28;20060;-85
2021/10/01 05:38:14;;;;;;;15.15;11.63;;;12.70;66.90;;;;;;5033420;28;20032;-87
2021/10/01 05:40:42;;;;;;;18.52;12.20;;;12.60;66.80;;;;;;5034900;28;20055;-85
2021/10/01 05:43:09;;;;;;;15.93;11.02;;;12.70;66.90;;;;;;5023336;28;20036;-85
2021/10/01 05:45:39;;;;;;;17.25;11.27;;;12.60;67.00;;;;;;5020491;28;20474;-85
2021/10/01 05:48:26;;;;;;;18.50;12.57;;;12.60;67.10;;;;;;5037506;28;20072;-84
2021/10/01 05:51:12;;;;;;;17.30;12.40;;;12.60;67.10;;;;;;5036279;28;20418;-87
2021/10/01 05:54:22;;;;;;;21.00;12.90;;;12.60;67.10;;;;;;4955418;28;20133;-87
2021/10/01 05:57:08;;;;;;;21.45;12.35;;;12.60;67.10;;;;;;4933215;28;20039;-86
2021/10/01 05:59:43;;;;;;;;;;;12.60;67.10;;;;;;4988634;28;20044;-88
2021/10/01 06:02:15;;;;;;;19.35;12.75;;;12.60;67.10;;;;;;5020547;28;19920;-89
2021/10/01 06:04:42;;;;;;;17.77;11.82;;;12.60;67.10;;;;;;5035490;28;20041;-87
2021/10/01 06:07:09;;;;;;;17.10;11.75;;;12.70;67.20;;;;;;5035703;28;20033;-88
2021/10/01 06:09:35;;;;;;;18.73;12.63;;;12.70;67.20;;;;;;5056507;28;20009;-85
2021/10/01 06:12:01;;;;;;;17.30;12.82;;;12.70;67.10;;;;;;5055055;28;20800;-86
2021/10/01 06:14:27;;;;;;;19.08;13.10;;;12.70;67.00;;;;;;5036584;28;20484;-87
2021/10/01 06:16:54;;;;;;;19.38;13.40;;;12.70;66.90;;;;;;5035287;28;20026;-87
2021/10/01 06:19:21;;;;;;;21.60;13.73;;;12.80;66.90;;;;;;5035341;28;20033;-85
2021/10/01 06:21:48;;;;;;;20.20;14.00;;;12.70;66.80;;;;;;5035309;28;20428;-87
2021/10/01 06:24:14;;;;;;;18.23;13.38;;;12.70;66.90;;;;;;5036046;28;20459;-85
2021/10/01 06:26:40;;;;;;;19.80;13.70;;;12.70;66.80;;;;;;5034860;28;20037;-85
2021/10/01 06:29:06;;;;;;;21.17;13.40;;;12.70;66.80;;;;;;5036257;28;20056;-85
2021/10/01 06:31:32;;;;;;;20.38;14.65;;;12.70;66.80;;;;;;5039487;28;20068;-89
2021/10/01 06:33:58;;;;;;;19.45;12.95;;;12.70;66.90;;;;;;5035549;28;20061;-84
2021/10/01 06:36:24;;;;;;;20.08;13.57;;;12.80;66.90;;;;;;5035528;28;20043;-90
2021/10/01 06:38:51;;;;;;;20.95;14.32;;;12.80;67.00;;;;;;5033149;28;20207;-89
2021/10/01 06:41:17;;;;;;;18.05;13.25;;;12.80;67.40;;;;;;5035053;28;20039;-90
2021/10/01 06:43:44;;;;;;;19.38;13.40;;;12.80;68.00;;;;;;5023362;28;20040;-89
2021/10/01 06:46:26;;;;;;;17.85;13.82;;;12.80;68.50;;;;;;5019485;28;20037;-90
2021/10/01 06:49:40;;;;;;;18.73;12.63;;;12.90;68.80;;;;;;5034596;28;20031;-89
2021/10/01 08:18:47;;;;;;;30.73;20.08;;;13.50;68.50;;;;;;5038369;28;20067;-87
2021/10/01 08:21:13;;;;;;;26.33;18.45;;;13.50;68.50;;;;;;5038081;28;20025;-87
2021/10/01 08:23:41;;;;;;;26.90;18.40;;;13.50;68.60;;;;;;5040931;28;20730;-87
2021/10/01 08:26:07;;;;;;;25.90;17.48;;;13.60;68.60;;;;;;5036873;28;20040;-87
2021/10/01 08:28:33;;;;;;;29.42;17.42;;;13.50;68.40;;;;;;5019622;28;20084;-88
2021/10/01 08:31:09;;;;;;;25.90;17.42;;;13.60;68.40;;;;;;5036767;28;20449;-87
2021/10/01 08:33:35;;;;;;;23.38;17.25;;;13.60;68.40;;;;;;5027240;28;20080;-87
2021/10/01 08:36:00;;;;;;;24.60;16.13;;;13.60;68.30;;;;;;5037344;28;20033;-87
2021/10/01 08:38:26;;;;;;;24.65;17.33;;;13.60;68.30;;;;;;5038144;28;20068;-88
2021/10/01 08:40:52;;;;;;;25.00;16.75;;;13.70;68.30;;;;;;5036331;28;20417;-88
2021/10/01 08:43:19;;;;;;;26.95;17.70;;;13.60;68.30;;;;;;5036803;28;20412;-88
2021/10/01 08:45:46;;;;;;;22.70;17.02;;;13.60;68.30;;;;;;5052822;28;20339;-87
2021/10/01 08:48:13;;;;;;;28.30;17.20;;;13.70;68.40;;;;;;5022483;28;20030;-88
2021/10/01 08:50:39;;;;;;;24.98;16.65;;;13.70;68.40;;;;;;5036829;28;20044;-85
2021/10/01 08:53:09;;;;;;;25.65;16.88;;;13.70;68.30;;;;;;5036808;28;20193;-88
2021/10/01 08:55:37;;;;;;;26.23;17.63;;;13.70;68.30;;;;;;5035686;28;20057;-87
2021/10/01 08:58:03;;;;;;;29.02;17.17;;;13.70;68.30;;;;;;5038751;28;20075;-86
2021/10/01 09:00:31;;;;;;;24.02;16.85;;;13.70;68.20;;;;;;5066107;28;20068;-87
2021/10/01 09:02:57;;;;;;;23.45;17.02;;;13.70;68.10;;;;;;5048447;28;20063;-87
2021/10/01 09:05:23;;;;;;;24.52;17.15;;;13.80;68.20;;;;;;5038247;28;20059;-88
2021/10/01 09:07:49;;;;;;;22.63;17.35;;;13.80;68.10;;;;;;5036813;28;20033;-89
2021/10/01 09:10:16;;;;;;;23.08;16.60;;;13.80;67.90;;;;;;5037137;28;20123;-87
2021/10/01 09:12:54;;;;;;;24.02;16.55;;;13.80;67.80;;;;;;5038411;28;20112;-88
2021/10/01 09:15:21;;;;;;;22.73;16.40;;;13.80;67.70;;;;;;5051651;28;20033;-89
2021/10/01 09:17:57;;;;;;;24.10;16.95;;;13.90;67.80;;;;;;5048557;28;20569;-89
2021/10/01 09:20:24;;;;;;;22.77;16.05;;;13.80;67.60;;;;;;5023645;28;20082;-89
2021/10/01 09:23:17;;;;;;;24.80;17.17;;;13.90;67.70;;;;;;5052154;28;20060;-88
2021/10/01 09:25:44;;;;;;;25.05;16.65;;;13.90;67.70;;;;;;5046115;28;20052;-88
2021/10/01 09:28:13;;;;;;;26.73;16.02;;;13.90;67.60;;;;;;5033112;28;20069;-88
2021/10/01 09:30:48;;;;;;;23.90;16.55;;;13.90;67.60;;;;;;5043763;28;20029;-87
2021/10/01 09:33:17;;;;;;;21.00;16.63;;;13.90;67.50;;;;;;5032857;28;20052;-88
2021/10/01 09:35:43;;;;;;;21.98;15.98;;;13.90;67.40;;;;;;5032887;28;20129;-87
2021/10/01 09:38:34;;;;;;;20.50;15.70;;;14.00;67.30;;;;;;5025206;28;20036;-89
2021/10/01 09:41:39;;;;;;;24.23;16.48;;;13.90;67.20;;;;;;5040365;28;20044;-87
2021/10/01 09:44:10;;;;;;;23.52;15.23;;;14.00;67.10;;;;;;5037721;28;20136;-91
2021/10/01 09:46:43;;;;;;;21.40;15.57;;;14.00;67.00;;;;;;5039896;28;20033;-90
2021/10/01 09:49:10;;;;;;;23.45;16.25;;;14.00;67.10;;;;;;5043239;28;20044;-89
2021/10/01 09:51:37;;;;;;;23.55;16.30;;;14.00;67.00;;;;;;5036308;28;20025;-90
2021/10/01 09:54:13;;;;;;;23.38;16.48;;;14.00;66.90;;;;;;5020835;28;20441;-87
2021/10/01 09:56:40;;;;;;;20.25;14.55;;;14.00;66.80;;;;;;5049232;28;20029;-88
2021/10/01 09:59:06;;;;;;;21.55;11.98;;;14.00;67.00;;;;;;5055265;28;20041;-88
2021/10/01 10:01:33;;;;;;;22.45;11.90;;;14.10;69.30;;;;;;5053582;28;20773;-92
2021/10/01 10:04:13;;;;;;;20.77;13.02;;;14.20;70.30;;;;;;5067579;28;20087;-90
2021/10/01 10:06:44;;;;;;;19.38;13.27;;;14.30;70.60;;;;;;5044450;28;20409;-89
2021/10/01 10:09:10;;;;;;;22.23;13.60;;;14.30;70.50;;;;;;5029859;28;20033;-91
2021/10/01 10:11:43;;;;;;;19.40;12.85;;;14.40;71.00;;;;;;5043776;28;20165;-89
2021/10/01 10:14:11;;;;;;;21.83;13.80;;;14.50;70.80;;;;;;5028862;28;20030;-85
2021/10/01 10:16:38;;;;;;;23.30;12.48;;;14.50;70.20;;;;;;5040829;28;20048;-85
2021/10/01 10:19:11;;;;;;;27.33;14.45;;;14.80;70.20;;;;;;5047422;28;20028;-84
2021/10/01 10:21:38;;;;;;;27.25;14.55;;;15.00;69.30;;;;;;5045902;28;20037;-83
2021/10/01 10:24:04;;;;;;;51.67;27.90;;;15.20;68.80;;;;;;5043766;28;20032;-84
2021/10/01 10:26:31;;;;;;;32.83;16.65;;;15.20;68.60;;;;;;5044101;28;20083;-84
2021/10/01 10:29:00;;;;;;;26.05;15.68;;;15.30;68.40;;;;;;5043508;28;20041;-84
2021/10/01 10:31:29;;;;;;;25.33;14.63;;;15.40;68.40;;;;;;5059959;28;20423;-88
2021/10/01 10:33:57;;;;;;;23.10;15.75;;;15.50;68.30;;;;;;5044431;28;20033;-85
2021/10/01 10:36:26;;;;;;;22.10;14.40;;;15.60;68.00;;;;;;5045210;28;20028;-84
2021/10/01 10:38:53;;;;;;;30.20;15.82;;;15.70;67.70;;;;;;5045698;28;20542;-84
2021/10/01 10:41:29;;;;;;;21.25;13.98;;;15.70;67.40;;;;;;5043949;28;20388;-85
2021/10/01 10:43:56;;;;;;;23.33;13.75;;;15.70;67.20;;;;;;5046012;28;20094;-85
2021/10/01 10:46:34;;;;;;;21.23;14.77;;;15.70;66.90;;;;;;5039758;28;20033;-85
2021/10/01 10:49:22;;;;;;;28.05;14.10;;;15.80;66.60;;;;;;5051747;28;20044;-86
2021/10/01 10:52:09;;;;;;;22.73;13.95;;;15.80;66.60;;;;;;5030803;28;20492;-84
2021/10/01 10:55:12;;;;;;;20.83;13.35;;;15.80;66.40;;;;;;5043292;28;20036;-85
2021/10/01 10:57:38;;;;;;;20.30;13.70;;;15.90;66.40;;;;;;5045298;28;20129;-84
2021/10/01 11:00:28;;;;;;;24.40;13.35;;;15.90;66.30;;;;;;5025253;28;20057;-85
2021/10/01 11:03:25;;;;;;;19.77;12.30;;;16.00;66.10;;;;;;5033794;28;20071;-86
2021/10/01 11:06:09;;;;;;;22.10;13.93;;;16.00;66.30;;;;;;5044262;28;20136;-83
2021/10/01 11:08:37;;;;;;;18.23;13.95;;;16.10;66.00;;;;;;5044784;28;20076;-84
2021/10/01 11:11:03;;;;;;;18.98;12.85;;;16.10;65.80;;;;;;5037056;28;20032;-83
2021/10/01 11:13:34;;;;;;;18.77;12.77;;;16.20;66.70;;;;;;5025532;28;20029;-85
2021/10/01 11:16:09;;;;;;;17.77;13.48;;;16.20;65.90;;;;;;5044688;28;20038;-87
2021/10/01 11:21:29;;;;;;;22.98;13.32;;;16.20;65.60;;;;;;5055911;28;20055;-85
2021/10/01 11:24:08;;;;;;;19.98;13.15;;;16.30;65.60;;;;;;5019665;28;20203;-86
2021/10/01 11:26:42;;;;;;;21.17;13.40;;;16.30;65.80;;;;;;5044155;28;20124;-84
2021/10/01 11:29:24;;;;;;;16.05;12.80;;;16.30;65.70;;;;;;5045158;28;20049;-83
2021/10/01 11:32:21;;;;;;;19.13;12.80;;;16.40;65.70;;;;;;5042073;28;20041;-84
2021/10/01 11:34:53;;;;;;;20.02;13.00;;;16.40;65.40;;;;;;5048782;28;20072;-85
2021/10/01 11:37:43;;;;;;;18.50;13.75;;;16.40;65.40;;;;;;5047960;28;20452;-84
2021/10/01 11:40:28;;;;;;;19.38;13.40;;;16.50;65.60;;;;;;5042363;28;20064;-85
2021/10/01 11:42:57;;;;;;;17.65;12.02;;;16.50;65.30;;;;;;5029399;28;20071;-84
2021/10/01 11:45:26;;;;;;;18.80;13.07;;;16.50;65.40;;;;;;5052804;28;20039;-86
2021/10/01 11:47:58;;;;;;;21.02;13.40;;;16.50;65.40;;;;;;5041934;28;20042;-85
2021/10/01 11:50:42;;;;;;;16.38;11.50;;;16.60;65.60;;;;;;5060418;28;20032;-85
2021/10/01 11:53:26;;;;;;;19.25;12.85;;;16.60;65.80;;;;;;5037345;28;20036;-86
2021/10/01 11:56:02;;;;;;;21.88;12.68;;;16.60;65.30;;;;;;5047797;28;20104;-85
2021/10/01 11:58:28;;;;;;;;;;;16.60;65.10;;;;;;5053323;28;20554;-84
2021/10/01 12:01:07;;;;;;;19.02;12.07;;;16.70;65.50;;;;;;5045008;28;19924;-84
2021/10/01 12:03:33;;;;;;;18.08;12.10;;;16.70;64.90;;;;;;5038836;28;20032;-85
2021/10/01 12:05:59;;;;;;;19.33;12.95;;;16.70;65.20;;;;;;5028622;28;20053;-90
2021/10/01 12:09:59;;;;;;;;;;;16.70;64.70;;;;;;5076630;27;20472;-89
2021/10/01 12:12:25;;;;;;;16.00;12.38;;;16.80;64.70;;;;;;5050834;28;19925;-92
2021/10/01 12:14:51;;;;;;;15.45;12.25;;;16.90;63.80;;;;;;5067742;28;20405;-89
2021/10/01 12:17:17;;;;;;;13.43;11.27;;;16.90;63.40;;;;;;5065835;28;20025;-88
2021/10/01 12:19:43;;;;;;;17.05;12.43;;;16.90;63.60;;;;;;5049085;28;20116;-92
2021/10/01 12:22:12;;;;;;;16.05;11.65;;;17.00;63.70;;;;;;5050742;28;20032;-92
2021/10/01 12:24:48;;;;;;;18.05;12.93;;;17.00;63.90;;;;;;5065133;28;20033;-92
2021/10/01 12:27:16;;;;;;;20.83;13.10;;;17.00;63.50;;;;;;5044604;28;20039;-92
2021/10/01 12:29:52;;;;;;;16.73;13.07;;;17.00;63.10;;;;;;5049483;28;20037;-89
2021/10/01 12:32:20;;;;;;;17.42;12.55;;;17.00;62.90;;;;;;5044718;28;20035;-89
2021/10/01 12:34:58;;;;;;;18.58;13.30;;;17.00;62.70;;;;;;5051326;28;20037;-90
2021/10/01 12:37:29;;;;;;;21.40;13.88;;;17.00;62.70;;;;;;5051762;28;20036;-91
2021/10/01 12:39:59;;;;;;;19.55;13.20;;;17.00;62.50;;;;;;5067204;28;20032;-90
2021/10/01 12:42:28;;;;;;;16.88;12.82;;;17.00;62.50;;;;;;5051463;28;20029;-91
2021/10/01 12:45:06;;;;;;;18.48;13.25;;;17.00;62.60;;;;;;5081704;28;20021;-89
2021/10/01 12:47:35;;;;;;;17.27;12.45;;;17.00;62.70;;;;;;5093784;28;20016;-90
2021/10/01 12:50:27;;;;;;;23.33;15.93;;;17.00;63.00;;;;;;5081672;28;20033;-86
2021/10/01 12:53:01;;;;;;;23.55;16.58;;;17.00;61.40;;;;;;5051341;28;20398;-87
2021/10/01 12:55:29;;;;;;;27.77;17.65;;;16.90;59.60;;;;;;5050971;28;20483;-87
2021/10/01 12:57:55;;;;;;;25.55;18.90;;;16.80;59.10;;;;;;5067758;28;20487;-87
2021/10/01 13:00:32;;;;;;;25.40;18.63;;;16.60;58.90;;;;;;5066854;28;20031;-87
2021/10/01 13:02:58;;;;;;;26.40;18.60;;;16.50;58.80;;;;;;5069301;28;20037;-87
2021/10/01 13:05:29;;;;;;;25.65;18.40;;;16.40;58.30;;;;;;5067167;28;20035;-88
2021/10/01 13:07:58;;;;;;;24.02;18.55;;;16.20;58.40;;;;;;5065060;28;20042;-89
2021/10/01 13:10:37;;;;;;;24.88;18.52;;;16.10;58.30;;;;;;5057945;28;20068;-88
2021/10/01 13:13:18;;;;;;;24.17;16.90;;;16.00;58.40;;;;;;5059027;28;20699;-90
2021/10/01 13:15:51;;;;;;;28.67;18.40;;;16.00;59.90;;;;;;5056657;28;20442;-89
2021/10/01 13:18:33;;;;;;;29.00;19.63;;;16.00;59.80;;;;;;5055316;28;20032;-88
2021/10/01 13:21:02;;;;;;;23.83;18.13;;;15.90;59.20;;;;;;5048113;28;20036;-87
2021/10/01 13:23:44;;;;;;;23.33;18.58;;;15.90;58.50;;;;;;5047638;28;20495;-86
2021/10/01 13:26:16;;;;;;;21.88;17.17;;;15.80;58.60;;;;;;5046079;28;20029;-86
2021/10/01 13:28:44;;;;;;;31.00;17.83;;;15.80;58.80;;;;;;5044165;28;20029;-88
2021/10/01 13:31:10;;;;;;;26.40;17.10;;;15.60;59.00;;;;;;5060348;28;20035;-88
2021/10/01 13:33:36;;;;;;;27.70;16.92;;;15.60;59.10;;;;;;5027564;28;20033;-90
2021/10/01 13:36:03;;;;;;;37.22;17.90;;;15.60;59.40;;;;;;5030700;28;20032;-88
2021/10/01 13:38:42;;;;;;;23.95;17.98;;;15.60;59.20;;;;;;5053322;28;20040;-88
2021/10/01 13:41:10;;;;;;;24.42;17.58;;;15.50;59.00;;;;;;5061918;28;20044;-86
2021/10/01 13:43:37;;;;;;;25.70;17.10;;;15.40;59.10;;;;;;5059355;28;20029;-87
2021/10/01 13:46:05;;;;;;;26.08;17.50;;;15.40;59.40;;;;;;5057830;28;20071;-87
2021/10/01 13:48:32;;;;;;;25.90;17.15;;;15.40;59.60;;;;;;5059789;28;20033;-88
2021/10/01 13:50:58;;;;;;;22.98;15.77;;;15.40;59.60;;;;;;5054471;28;20033;-88
2021/10/01 13:53:25;;;;;;;22.90;16.88;;;15.40;59.60;;;;;;5036636;28;20068;-88
2021/10/01 13:55:52;;;;;;;22.85;16.50;;;15.30;59.50;;;;;;5035612;28;20083;-89
2021/10/01 13:58:18;;;;;;;24.52;15.73;;;15.30;59.50;;;;;;5054257;28;20060;-88
2021/10/01 14:00:44;;;;;;;20.92;15.50;;;15.30;59.60;;;;;;5054398;28;20119;-87
2021/10/01 14:03:12;;;;;;;22.98;16.38;;;15.20;59.70;;;;;;5053050;28;20545;-86
2021/10/01 14:05:39;;;;;;;25.25;17.02;;;15.20;59.70;;;;;;5049963;28;20499;-88
2021/10/01 14:08:05;;;;;;;25.92;16.63;;;15.20;59.60;;;;;;5045750;28;20512;-88
2021/10/01 14:10:32;;;;;;;21.73;16.85;;;15.10;59.70;;;;;;5044844;28;20033;-89
2021/10/01 14:12:59;;;;;;;26.67;17.40;;;15.10;59.50;;;;;;5042115;28;20588;-91
2021/10/01 14:15:28;;;;;;;26.90;17.05;;;15.10;59.50;;;;;;5026893;28;20029;-95
2021/10/01 14:17:55;;;;;;;24.77;16.42;;;15.10;59.50;;;;;;5043179;28;20581;-92
2021/10/01 14:20:23;;;;;;;24.38;17.23;;;15.10;59.80;;;;;;5025834;28;20039;-92